sensor_id;sensor_type;location;lat;lon;timestamp;temperature;humidity
69359;HTU21D;56520;49.066;8.660;2023-07-20T00:01:15;19.08;55.26
69359;HTU21D;56520;49.066;8.660;2023-07-20T00:03:40;19.06;55.34
69359;HTU21D;56520;49.066;8.660;2023-07-20T00:06:06;19.06;55.33
69359;HTU21D;56520;49.066;8.660;2023-07-20T00:08:32;19.02;55.37
69359;HTU21D;56520;49.066;8.660;2023-07-20T00:10:57;19.00;55.57
69359;HTU21D;56520;49.066;8.660;2023-07-20T00:13:23;18.99;55.61
69359;HTU21D;56520;49.066;8.660;2023-07-20T00:15:52;18.97;55.82
69359;HTU21D;56520;49.066;8.660;2023-07-20T00:18:17;18.97;55.84
69359;HTU21D;56520;49.066;8.660;2023-07-20T00:20:43;18.95;56.07
69359;HTU21D;56520;49.066;8.660;2023-07-20T00:23:08;18.93;56.06
69359;HTU21D;56520;49.066;8.660;2023-07-20T00:25:34;18.93;56.15
69359;HTU21D;56520;49.066;8.660;2023-07-20T00:27:59;18.92;56.19
69359;HTU21D;56520;49.066;8.660;2023-07-20T00:30:25;18.87;56.30
69359;HTU21D;56520;49.066;8.660;2023-07-20T00:32:50;18.84;56.37
69359;HTU21D;56520;49.066;8.660;2023-07-20T00:35:16;18.83;56.53
69359;HTU21D;56520;49.066;8.660;2023-07-20T00:37:41;18.81;56.86
69359;HTU21D;56520;49.066;8.660;2023-07-20T00:40:07;18.78;56.81
69359;HTU21D;56520;49.066;8.660;2023-07-20T00:42:33;18.74;57.05
69359;HTU21D;56520;49.066;8.660;2023-07-20T00:44:59;18.69;57.18
69359;HTU21D;56520;49.066;8.660;2023-07-20T00:47:24;18.66;57.39
69359;HTU21D;56520;49.066;8.660;2023-07-20T00:49:51;18.64;57.63
69359;HTU21D;56520;49.066;8.660;2023-07-20T00:52:18;18.61;57.67
69359;HTU21D;56520;49.066;8.660;2023-07-20T00:54:44;18.55;57.58
69359;HTU21D;56520;49.066;8.660;2023-07-20T00:57:10;18.51;57.72
69359;HTU21D;56520;49.066;8.660;2023-07-20T00:59:36;18.47;57.93
69359;HTU21D;56520;49.066;8.660;2023-07-20T01:02:02;18.43;57.97
69359;HTU21D;56520;49.066;8.660;2023-07-20T01:04:28;18.42;58.17
69359;HTU21D;56520;49.066;8.660;2023-07-20T01:12:12;18.29;58.47
69359;HTU21D;56520;49.066;8.660;2023-07-20T01:14:40;18.24;58.54
69359;HTU21D;56520;49.066;8.660;2023-07-20T01:17:05;18.18;58.64
69359;HTU21D;56520;49.066;8.660;2023-07-20T01:19:31;18.13;58.87
69359;HTU21D;56520;49.066;8.660;2023-07-20T01:22:00;18.07;58.95
69359;HTU21D;56520;49.066;8.660;2023-07-20T01:30:03;17.92;59.43
69359;HTU21D;56520;49.066;8.660;2023-07-20T01:32:34;17.88;59.52
69359;HTU21D;56520;49.066;8.660;2023-07-20T01:35:01;17.84;59.95
69359;HTU21D;56520;49.066;8.660;2023-07-20T01:37:27;17.80;59.87
69359;HTU21D;56520;49.066;8.660;2023-07-20T01:39:55;17.75;60.05
69359;HTU21D;56520;49.066;8.660;2023-07-20T01:42:22;17.68;60.30
69359;HTU21D;56520;49.066;8.660;2023-07-20T01:44:50;17.63;60.91
69359;HTU21D;56520;49.066;8.660;2023-07-20T01:47:17;17.55;60.67
69359;HTU21D;56520;49.066;8.660;2023-07-20T01:49:42;17.51;60.85
69359;HTU21D;56520;49.066;8.660;2023-07-20T01:52:08;17.45;61.15
69359;HTU21D;56520;49.066;8.660;2023-07-20T01:54:33;17.41;61.31
69359;HTU21D;56520;49.066;8.660;2023-07-20T01:56:59;17.35;61.83
69359;HTU21D;56520;49.066;8.660;2023-07-20T01:59:24;17.29;61.85
69359;HTU21D;56520;49.066;8.660;2023-07-20T02:01:49;17.25;62.20
69359;HTU21D;56520;49.066;8.660;2023-07-20T02:04:15;17.18;62.23
69359;HTU21D;56520;49.066;8.660;2023-07-20T02:06:41;17.13;62.41
69359;HTU21D;56520;49.066;8.660;2023-07-20T02:09:06;17.08;62.91
69359;HTU21D;56520;49.066;8.660;2023-07-20T02:11:31;17.02;63.27
69359;HTU21D;56520;49.066;8.660;2023-07-20T02:13:57;16.99;63.44
69359;HTU21D;56520;49.066;8.660;2023-07-20T02:16:22;16.93;63.75
69359;HTU21D;56520;49.066;8.660;2023-07-20T02:18:51;16.91;64.12
69359;HTU21D;56520;49.066;8.660;2023-07-20T02:21:17;16.87;64.13
69359;HTU21D;56520;49.066;8.660;2023-07-20T02:23:42;16.80;64.03
69359;HTU21D;56520;49.066;8.660;2023-07-20T02:26:08;16.79;64.31
69359;HTU21D;56520;49.066;8.660;2023-07-20T02:28:33;16.77;64.29
69359;HTU21D;56520;49.066;8.660;2023-07-20T02:30:59;16.73;64.50
69359;HTU21D;56520;49.066;8.660;2023-07-20T02:33:25;16.73;64.41
69359;HTU21D;56520;49.066;8.660;2023-07-20T02:35:51;16.73;64.50
69359;HTU21D;56520;49.066;8.660;2023-07-20T02:38:17;16.71;64.79
69359;HTU21D;56520;49.066;8.660;2023-07-20T02:40:42;16.72;65.08
69359;HTU21D;56520;49.066;8.660;2023-07-20T02:43:08;16.69;65.51
69359;HTU21D;56520;49.066;8.660;2023-07-20T02:45:35;16.65;65.75
69359;HTU21D;56520;49.066;8.660;2023-07-20T02:48:00;16.61;66.22
69359;HTU21D;56520;49.066;8.660;2023-07-20T02:50:26;16.56;66.14
69359;HTU21D;56520;49.066;8.660;2023-07-20T02:52:51;16.52;66.10
69359;HTU21D;56520;49.066;8.660;2023-07-20T02:55:17;16.49;66.70
69359;HTU21D;56520;49.066;8.660;2023-07-20T02:57:42;16.46;66.29
69359;HTU21D;56520;49.066;8.660;2023-07-20T03:00:08;16.45;66.94
69359;HTU21D;56520;49.066;8.660;2023-07-20T03:02:33;16.42;67.60
69359;HTU21D;56520;49.066;8.660;2023-07-20T03:04:59;16.37;66.72
69359;HTU21D;56520;49.066;8.660;2023-07-20T03:07:27;16.36;67.25
69359;HTU21D;56520;49.066;8.660;2023-07-20T03:09:53;16.34;67.30
69359;HTU21D;56520;49.066;8.660;2023-07-20T03:12:18;16.32;67.37
69359;HTU21D;56520;49.066;8.660;2023-07-20T03:14:44;16.33;67.01
69359;HTU21D;56520;49.066;8.660;2023-07-20T03:17:09;16.30;67.09
69359;HTU21D;56520;49.066;8.660;2023-07-20T03:19:34;16.26;67.41
69359;HTU21D;56520;49.066;8.660;2023-07-20T03:22:00;16.21;67.49
69359;HTU21D;56520;49.066;8.660;2023-07-20T03:24:25;16.18;67.67
69359;HTU21D;56520;49.066;8.660;2023-07-20T03:26:51;16.17;67.84
69359;HTU21D;56520;49.066;8.660;2023-07-20T03:29:16;16.14;67.85
69359;HTU21D;56520;49.066;8.660;2023-07-20T03:31:41;16.11;68.09
69359;HTU21D;56520;49.066;8.660;2023-07-20T03:34:07;16.08;68.43
69359;HTU21D;56520;49.066;8.660;2023-07-20T03:36:34;16.05;68.67
69359;HTU21D;56520;49.066;8.660;2023-07-20T03:38:59;16.04;68.76
69359;HTU21D;56520;49.066;8.660;2023-07-20T03:41:24;16.03;68.94
69359;HTU21D;56520;49.066;8.660;2023-07-20T03:43:50;15.99;69.11
69359;HTU21D;56520;49.066;8.660;2023-07-20T03:46:15;15.96;69.41
69359;HTU21D;56520;49.066;8.660;2023-07-20T03:48:41;15.93;69.49
69359;HTU21D;56520;49.066;8.660;2023-07-20T03:51:06;15.93;69.67
69359;HTU21D;56520;49.066;8.660;2023-07-20T03:53:31;15.90;69.81
69359;HTU21D;56520;49.066;8.660;2023-07-20T03:55:57;15.90;69.98
69359;HTU21D;56520;49.066;8.660;2023-07-20T03:58:23;15.91;70.08
69359;HTU21D;56520;49.066;8.660;2023-07-20T04:00:50;15.91;70.06
69359;HTU21D;56520;49.066;8.660;2023-07-20T04:03:17;15.90;70.43
69359;HTU21D;56520;49.066;8.660;2023-07-20T04:05:43;15.89;70.16
69359;HTU21D;56520;49.066;8.660;2023-07-20T04:08:09;15.90;70.44
69359;HTU21D;56520;49.066;8.660;2023-07-20T04:10:36;15.89;71.33
69359;HTU21D;56520;49.066;8.660;2023-07-20T04:13:02;15.84;71.10
69359;HTU21D;56520;49.066;8.660;2023-07-20T04:15:27;15.81;71.57
69359;HTU21D;56520;49.066;8.660;2023-07-20T04:17:53;15.77;71.16
69359;HTU21D;56520;49.066;8.660;2023-07-20T04:20:18;15.76;71.24
69359;HTU21D;56520;49.066;8.660;2023-07-20T04:22:44;15.78;71.42
69359;HTU21D;56520;49.066;8.660;2023-07-20T04:25:09;15.81;71.19
69359;HTU21D;56520;49.066;8.660;2023-07-20T04:27:35;15.84;71.04
69359;HTU21D;56520;49.066;8.660;2023-07-20T04:30:01;15.87;70.92
69359;HTU21D;56520;49.066;8.660;2023-07-20T04:32:27;15.92;70.87
69359;HTU21D;56520;49.066;8.660;2023-07-20T04:34:53;15.97;70.85
69359;HTU21D;56520;49.066;8.660;2023-07-20T04:37:18;16.05;70.77
69359;HTU21D;56520;49.066;8.660;2023-07-20T04:39:44;16.11;70.88
69359;HTU21D;56520;49.066;8.660;2023-07-20T04:42:09;16.17;71.00
69359;HTU21D;56520;49.066;8.660;2023-07-20T04:44:34;16.24;71.18
69359;HTU21D;56520;49.066;8.660;2023-07-20T04:47:00;16.29;71.02
69359;HTU21D;56520;49.066;8.660;2023-07-20T04:49:25;16.32;71.15
69359;HTU21D;56520;49.066;8.660;2023-07-20T04:51:51;16.39;71.21
69359;HTU21D;56520;49.066;8.660;2023-07-20T04:54:17;16.43;71.13
69359;HTU21D;56520;49.066;8.660;2023-07-20T04:56:43;16.47;71.41
69359;HTU21D;56520;49.066;8.660;2023-07-20T04:59:09;16.51;71.16
69359;HTU21D;56520;49.066;8.660;2023-07-20T05:01:34;16.55;71.43
69359;HTU21D;56520;49.066;8.660;2023-07-20T05:04:00;16.61;72.13
69359;HTU21D;56520;49.066;8.660;2023-07-20T05:06:25;16.64;71.85
69359;HTU21D;56520;49.066;8.660;2023-07-20T05:08:51;16.69;71.52
69359;HTU21D;56520;49.066;8.660;2023-07-20T05:11:19;16.74;72.12
69359;HTU21D;56520;49.066;8.660;2023-07-20T05:13:45;16.76;71.66
69359;HTU21D;56520;49.066;8.660;2023-07-20T05:16:10;16.80;71.23
69359;HTU21D;56520;49.066;8.660;2023-07-20T05:18:35;16.85;71.09
69359;HTU21D;56520;49.066;8.660;2023-07-20T05:21:01;16.88;71.12
69359;HTU21D;56520;49.066;8.660;2023-07-20T05:23:26;16.94;70.97
69359;HTU21D;56520;49.066;8.660;2023-07-20T05:25:56;17.03;70.92
69359;HTU21D;56520;49.066;8.660;2023-07-20T05:28:22;17.08;70.76
69359;HTU21D;56520;49.066;8.660;2023-07-20T05:30:48;17.14;70.70
69359;HTU21D;56520;49.066;8.660;2023-07-20T05:33:14;17.20;70.84
69359;HTU21D;56520;49.066;8.660;2023-07-20T05:35:39;17.25;70.39
69359;HTU21D;56520;49.066;8.660;2023-07-20T05:38:05;17.34;70.21
69359;HTU21D;56520;49.066;8.660;2023-07-20T05:40:31;17.41;70.29
69359;HTU21D;56520;49.066;8.660;2023-07-20T05:42:57;17.49;69.97
69359;HTU21D;56520;49.066;8.660;2023-07-20T05:45:23;17.54;69.80
69359;HTU21D;56520;49.066;8.660;2023-07-20T05:47:48;17.58;69.84
69359;HTU21D;56520;49.066;8.660;2023-07-20T05:50:14;17.60;69.77
69359;HTU21D;56520;49.066;8.660;2023-07-20T05:52:40;17.61;69.94
69359;HTU21D;56520;49.066;8.660;2023-07-20T05:55:06;17.63;69.11
69359;HTU21D;56520;49.066;8.660;2023-07-20T05:57:31;17.68;69.09
69359;HTU21D;56520;49.066;8.660;2023-07-20T05:59:57;17.77;68.88
69359;HTU21D;56520;49.066;8.660;2023-07-20T06:02:22;17.84;68.16
69359;HTU21D;56520;49.066;8.660;2023-07-20T06:04:47;17.94;68.20
69359;HTU21D;56520;49.066;8.660;2023-07-20T06:07:13;18.05;66.75
69359;HTU21D;56520;49.066;8.660;2023-07-20T06:09:39;18.17;66.53
69359;HTU21D;56520;49.066;8.660;2023-07-20T06:12:05;18.29;66.34
69359;HTU21D;56520;49.066;8.660;2023-07-20T06:14:30;18.40;65.82
69359;HTU21D;56520;49.066;8.660;2023-07-20T06:16:56;18.49;65.24
69359;HTU21D;56520;49.066;8.660;2023-07-20T06:19:21;18.61;64.60
69359;HTU21D;56520;49.066;8.660;2023-07-20T06:21:47;18.61;64.92
69359;HTU21D;56520;49.066;8.660;2023-07-20T06:24:15;18.66;64.75
69359;HTU21D;56520;49.066;8.660;2023-07-20T06:26:40;18.68;65.11
69359;HTU21D;56520;49.066;8.660;2023-07-20T06:29:06;18.74;64.95
69359;HTU21D;56520;49.066;8.660;2023-07-20T06:31:32;18.89;64.01
69359;HTU21D;56520;49.066;8.660;2023-07-20T06:33:58;19.01;63.46
69359;HTU21D;56520;49.066;8.660;2023-07-20T06:36:23;19.10;63.73
69359;HTU21D;56520;49.066;8.660;2023-07-20T06:38:49;19.14;64.10
69359;HTU21D;56520;49.066;8.660;2023-07-20T06:41:14;19.23;63.90
69359;HTU21D;56520;49.066;8.660;2023-07-20T06:43:39;19.32;63.06
69359;HTU21D;56520;49.066;8.660;2023-07-20T06:46:05;19.45;62.60
69359;HTU21D;56520;49.066;8.660;2023-07-20T06:48:30;19.51;62.44
69359;HTU21D;56520;49.066;8.660;2023-07-20T06:50:55;19.59;61.64
69359;HTU21D;56520;49.066;8.660;2023-07-20T06:53:21;19.53;61.92
69359;HTU21D;56520;49.066;8.660;2023-07-20T06:55:47;19.54;61.63
69359;HTU21D;56520;49.066;8.660;2023-07-20T06:58:12;19.57;62.02
69359;HTU21D;56520;49.066;8.660;2023-07-20T07:00:38;19.61;62.67
69359;HTU21D;56520;49.066;8.660;2023-07-20T07:03:03;19.71;61.85
69359;HTU21D;56520;49.066;8.660;2023-07-20T07:05:29;19.77;62.08
69359;HTU21D;56520;49.066;8.660;2023-07-20T07:07:54;19.84;61.85
69359;HTU21D;56520;49.066;8.660;2023-07-20T07:10:19;19.89;61.16
69359;HTU21D;56520;49.066;8.660;2023-07-20T07:12:45;19.98;61.14
69359;HTU21D;56520;49.066;8.660;2023-07-20T07:15:10;20.01;60.68
69359;HTU21D;56520;49.066;8.660;2023-07-20T07:17:36;20.16;59.71
69359;HTU21D;56520;49.066;8.660;2023-07-20T07:20:02;20.21;60.14
69359;HTU21D;56520;49.066;8.660;2023-07-20T07:22:29;20.30;59.20
69359;HTU21D;56520;49.066;8.660;2023-07-20T07:24:54;20.33;59.29
69359;HTU21D;56520;49.066;8.660;2023-07-20T07:27:20;20.35;59.39
69359;HTU21D;56520;49.066;8.660;2023-07-20T07:29:45;20.47;58.79
69359;HTU21D;56520;49.066;8.660;2023-07-20T07:32:11;20.46;58.67
69359;HTU21D;56520;49.066;8.660;2023-07-20T07:34:37;20.46;59.00
69359;HTU21D;56520;49.066;8.660;2023-07-20T07:37:04;20.47;59.68
69359;HTU21D;56520;49.066;8.660;2023-07-20T07:39:29;20.61;59.15
69359;HTU21D;56520;49.066;8.660;2023-07-20T07:41:55;20.69;59.52
69359;HTU21D;56520;49.066;8.660;2023-07-20T07:44:21;20.86;58.73
69359;HTU21D;56520;49.066;8.660;2023-07-20T07:46:46;20.95;58.09
69359;HTU21D;56520;49.066;8.660;2023-07-20T07:49:12;20.99;58.45
69359;HTU21D;56520;49.066;8.660;2023-07-20T07:51:37;21.13;59.05
69359;HTU21D;56520;49.066;8.660;2023-07-20T07:54:03;21.35;57.25
69359;HTU21D;56520;49.066;8.660;2023-07-20T07:56:29;21.51;56.63
69359;HTU21D;56520;49.066;8.660;2023-07-20T07:58:54;21.60;55.08
69359;HTU21D;56520;49.066;8.660;2023-07-20T08:01:20;21.63;55.52
69359;HTU21D;56520;49.066;8.660;2023-07-20T08:03:45;21.57;55.35
69359;HTU21D;56520;49.066;8.660;2023-07-20T08:06:13;21.45;55.97
69359;HTU21D;56520;49.066;8.660;2023-07-20T08:08:38;21.48;55.26
69359;HTU21D;56520;49.066;8.660;2023-07-20T08:11:04;21.52;56.03
69359;HTU21D;56520;49.066;8.660;2023-07-20T08:13:30;21.61;55.53
69359;HTU21D;56520;49.066;8.660;2023-07-20T08:15:55;21.67;55.09
69359;HTU21D;56520;49.066;8.660;2023-07-20T08:18:21;21.72;55.24
69359;HTU21D;56520;49.066;8.660;2023-07-20T08:20:47;21.75;54.65
69359;HTU21D;56520;49.066;8.660;2023-07-20T08:23:13;21.78;54.67
69359;HTU21D;56520;49.066;8.660;2023-07-20T08:25:39;21.87;54.52
69359;HTU21D;56520;49.066;8.660;2023-07-20T08:28:14;21.92;54.60
69359;HTU21D;56520;49.066;8.660;2023-07-20T08:30:44;22.01;54.67
69359;HTU21D;56520;49.066;8.660;2023-07-20T08:33:12;22.13;53.21
69359;HTU21D;56520;49.066;8.660;2023-07-20T08:35:38;22.18;53.55
69359;HTU21D;56520;49.066;8.660;2023-07-20T08:38:03;22.21;53.78
69359;HTU21D;56520;49.066;8.660;2023-07-20T08:40:31;22.38;53.11
69359;HTU21D;56520;49.066;8.660;2023-07-20T08:42:58;22.48;53.39
69359;HTU21D;56520;49.066;8.660;2023-07-20T08:45:26;22.58;52.07
69359;HTU21D;56520;49.066;8.660;2023-07-20T08:47:54;22.62;51.89
69359;HTU21D;56520;49.066;8.660;2023-07-20T08:50:21;22.68;52.22
69359;HTU21D;56520;49.066;8.660;2023-07-20T08:52:48;22.72;51.56
69359;HTU21D;56520;49.066;8.660;2023-07-20T08:55:15;22.72;51.61
69359;HTU21D;56520;49.066;8.660;2023-07-20T08:57:41;22.92;51.17
69359;HTU21D;56520;49.066;8.660;2023-07-20T09:00:10;23.06;49.86
69359;HTU21D;56520;49.066;8.660;2023-07-20T09:02:39;23.30;48.98
69359;HTU21D;56520;49.066;8.660;2023-07-20T09:05:08;23.29;48.79
69359;HTU21D;56520;49.066;8.660;2023-07-20T09:07:35;23.36;49.59
69359;HTU21D;56520;49.066;8.660;2023-07-20T09:10:01;23.49;49.23
69359;HTU21D;56520;49.066;8.660;2023-07-20T09:12:35;23.53;49.40
69359;HTU21D;56520;49.066;8.660;2023-07-20T09:15:00;23.73;48.08
69359;HTU21D;56520;49.066;8.660;2023-07-20T09:17:26;23.95;46.96
69359;HTU21D;56520;49.066;8.660;2023-07-20T09:19:52;23.85;48.33
69359;HTU21D;56520;49.066;8.660;2023-07-20T09:22:17;23.87;48.75
69359;HTU21D;56520;49.066;8.660;2023-07-20T09:24:43;24.19;47.09
69359;HTU21D;56520;49.066;8.660;2023-07-20T09:27:09;23.91;47.77
69359;HTU21D;56520;49.066;8.660;2023-07-20T09:29:53;23.45;49.32
69359;HTU21D;56520;49.066;8.660;2023-07-20T09:32:19;23.46;49.05
69359;HTU21D;56520;49.066;8.660;2023-07-20T09:34:49;23.71;49.28
69359;HTU21D;56520;49.066;8.660;2023-07-20T09:37:23;24.12;48.77
69359;HTU21D;56520;49.066;8.660;2023-07-20T09:39:51;24.39;48.12
69359;HTU21D;56520;49.066;8.660;2023-07-20T09:42:17;24.82;46.16
69359;HTU21D;56520;49.066;8.660;2023-07-20T09:44:44;25.06;44.66
69359;HTU21D;56520;49.066;8.660;2023-07-20T09:47:10;25.13;45.60
69359;HTU21D;56520;49.066;8.660;2023-07-20T09:49:39;25.21;44.90
69359;HTU21D;56520;49.066;8.660;2023-07-20T09:52:07;25.38;44.56
69359;HTU21D;56520;49.066;8.660;2023-07-20T09:54:33;25.48;45.30
69359;HTU21D;56520;49.066;8.660;2023-07-20T09:57:00;25.80;42.86
69359;HTU21D;56520;49.066;8.660;2023-07-20T09:59:26;25.83;42.23
69359;HTU21D;56520;49.066;8.660;2023-07-20T10:01:53;26.02;42.10
69359;HTU21D;56520;49.066;8.660;2023-07-20T10:04:21;26.02;42.97
69359;HTU21D;56520;49.066;8.660;2023-07-20T10:06:48;26.04;43.00
69359;HTU21D;56520;49.066;8.660;2023-07-20T10:09:16;26.02;42.61
69359;HTU21D;56520;49.066;8.660;2023-07-20T10:11:45;26.19;42.16
69359;HTU21D;56520;49.066;8.660;2023-07-20T10:14:16;26.45;41.36
69359;HTU21D;56520;49.066;8.660;2023-07-20T10:16:50;26.39;40.13
69359;HTU21D;56520;49.066;8.660;2023-07-20T10:19:34;26.06;40.30
69359;HTU21D;56520;49.066;8.660;2023-07-20T10:22:15;25.47;41.82
69359;HTU21D;56520;49.066;8.660;2023-07-20T10:24:45;25.14;43.02
69359;HTU21D;56520;49.066;8.660;2023-07-20T10:27:11;25.32;43.63
69359;HTU21D;56520;49.066;8.660;2023-07-20T10:29:37;25.25;42.58
69359;HTU21D;56520;49.066;8.660;2023-07-20T10:32:03;24.97;42.68
69359;HTU21D;56520;49.066;8.660;2023-07-20T10:34:29;25.07;42.99
69359;HTU21D;56520;49.066;8.660;2023-07-20T10:36:54;25.42;42.74
69359;HTU21D;56520;49.066;8.660;2023-07-20T10:39:27;25.92;39.76
69359;HTU21D;56520;49.066;8.660;2023-07-20T10:42:10;26.34;39.36
69359;HTU21D;56520;49.066;8.660;2023-07-20T10:44:39;26.57;38.25
69359;HTU21D;56520;49.066;8.660;2023-07-20T10:47:12;26.75;39.02
69359;HTU21D;56520;49.066;8.660;2023-07-20T10:49:57;27.11;40.19
69359;HTU21D;56520;49.066;8.660;2023-07-20T10:52:23;27.07;36.90
69359;HTU21D;56520;49.066;8.660;2023-07-20T10:54:48;26.51;37.50
69359;HTU21D;56520;49.066;8.660;2023-07-20T10:57:23;25.93;38.92
69359;HTU21D;56520;49.066;8.660;2023-07-20T10:59:49;25.96;41.08
69359;HTU21D;56520;49.066;8.660;2023-07-20T11:02:18;26.41;42.10
69359;HTU21D;56520;49.066;8.660;2023-07-20T11:04:47;27.05;38.75
69359;HTU21D;56520;49.066;8.660;2023-07-20T11:07:17;27.12;38.07
69359;HTU21D;56520;49.066;8.660;2023-07-20T11:09:43;27.06;38.21
69359;HTU21D;56520;49.066;8.660;2023-07-20T11:12:13;27.15;38.57
69359;HTU21D;56520;49.066;8.660;2023-07-20T11:15:04;26.80;37.06
69359;HTU21D;56520;49.066;8.660;2023-07-20T11:17:30;26.19;38.06
69359;HTU21D;56520;49.066;8.660;2023-07-20T11:19:57;25.74;39.33
69359;HTU21D;56520;49.066;8.660;2023-07-20T11:22:22;25.43;39.75
69359;HTU21D;56520;49.066;8.660;2023-07-20T11:24:48;25.37;40.01
69359;HTU21D;56520;49.066;8.660;2023-07-20T11:27:16;25.63;40.52
69359;HTU21D;56520;49.066;8.660;2023-07-20T11:29:45;26.21;39.69
69359;HTU21D;56520;49.066;8.660;2023-07-20T11:32:10;26.47;39.50
69359;HTU21D;56520;49.066;8.660;2023-07-20T11:34:36;27.04;37.86
69359;HTU21D;56520;49.066;8.660;2023-07-20T11:37:02;27.41;37.77
69359;HTU21D;56520;49.066;8.660;2023-07-20T11:39:29;27.86;34.66
69359;HTU21D;56520;49.066;8.660;2023-07-20T11:41:56;28.02;34.39
69359;HTU21D;56520;49.066;8.660;2023-07-20T11:44:23;28.10;34.99
69359;HTU21D;56520;49.066;8.660;2023-07-20T11:47:09;28.17;35.66
69359;HTU21D;56520;49.066;8.660;2023-07-20T11:49:42;28.25;34.13
69359;HTU21D;56520;49.066;8.660;2023-07-20T11:52:15;28.24;34.25
69359;HTU21D;56520;49.066;8.660;2023-07-20T11:54:42;28.11;34.47
69359;HTU21D;56520;49.066;8.660;2023-07-20T11:57:24;27.78;33.57
69359;HTU21D;56520;49.066;8.660;2023-07-20T11:59:54;27.20;35.48
69359;HTU21D;56520;49.066;8.660;2023-07-20T12:02:22;26.79;36.53
69359;HTU21D;56520;49.066;8.660;2023-07-20T12:04:50;26.40;36.32
69359;HTU21D;56520;49.066;8.660;2023-07-20T12:07:15;26.10;37.24
69359;HTU21D;56520;49.066;8.660;2023-07-20T12:09:41;26.19;37.21
69359;HTU21D;56520;49.066;8.660;2023-07-20T12:12:10;26.54;37.33
69359;HTU21D;56520;49.066;8.660;2023-07-20T12:14:37;27.14;37.05
69359;HTU21D;56520;49.066;8.660;2023-07-20T12:17:02;27.55;35.56
69359;HTU21D;56520;49.066;8.660;2023-07-20T12:19:28;27.80;33.60
69359;HTU21D;56520;49.066;8.660;2023-07-20T12:21:57;27.99;35.18
69359;HTU21D;56520;49.066;8.660;2023-07-20T12:24:24;28.17;33.43
69359;HTU21D;56520;49.066;8.660;2023-07-20T12:26:56;28.28;32.36
69359;HTU21D;56520;49.066;8.660;2023-07-20T12:29:23;27.89;33.14
69359;HTU21D;56520;49.066;8.660;2023-07-20T12:31:48;27.52;33.84
69359;HTU21D;56520;49.066;8.660;2023-07-20T12:34:13;27.66;35.08
69359;HTU21D;56520;49.066;8.660;2023-07-20T12:36:39;27.88;35.43
69359;HTU21D;56520;49.066;8.660;2023-07-20T12:39:04;28.00;33.59
69359;HTU21D;56520;49.066;8.660;2023-07-20T12:41:30;28.01;34.19
69359;HTU21D;56520;49.066;8.660;2023-07-20T12:43:56;28.08;33.75
69359;HTU21D;56520;49.066;8.660;2023-07-20T12:46:23;28.10;34.92
69359;HTU21D;56520;49.066;8.660;2023-07-20T12:48:48;28.44;32.21
69359;HTU21D;56520;49.066;8.660;2023-07-20T12:51:14;28.38;32.60
69359;HTU21D;56520;49.066;8.660;2023-07-20T12:53:39;28.38;32.19
69359;HTU21D;56520;49.066;8.660;2023-07-20T12:56:05;28.39;33.37
69359;HTU21D;56520;49.066;8.660;2023-07-20T12:58:31;28.44;32.49
69359;HTU21D;56520;49.066;8.660;2023-07-20T13:00:56;28.53;33.41
69359;HTU21D;56520;49.066;8.660;2023-07-20T13:03:22;28.61;31.74
69359;HTU21D;56520;49.066;8.660;2023-07-20T13:05:48;28.59;31.41
69359;HTU21D;56520;49.066;8.660;2023-07-20T13:08:14;28.58;31.76
69359;HTU21D;56520;49.066;8.660;2023-07-20T13:10:39;28.30;32.15
69359;HTU21D;56520;49.066;8.660;2023-07-20T13:13:05;28.00;32.00
69359;HTU21D;56520;49.066;8.660;2023-07-20T13:15:32;27.81;31.91
69359;HTU21D;56520;49.066;8.660;2023-07-20T13:17:58;27.56;32.94
69359;HTU21D;56520;49.066;8.660;2023-07-20T13:20:25;27.72;31.86
69359;HTU21D;56520;49.066;8.660;2023-07-20T13:22:51;28.05;31.55
69359;HTU21D;56520;49.066;8.660;2023-07-20T13:25:17;28.37;30.17
69359;HTU21D;56520;49.066;8.660;2023-07-20T13:27:42;28.50;30.35
69359;HTU21D;56520;49.066;8.660;2023-07-20T13:30:08;28.46;31.33
69359;HTU21D;56520;49.066;8.660;2023-07-20T13:32:35;28.44;30.83
69359;HTU21D;56520;49.066;8.660;2023-07-20T13:35:01;28.16;30.96
69359;HTU21D;56520;49.066;8.660;2023-07-20T13:37:27;27.80;30.26
69359;HTU21D;56520;49.066;8.660;2023-07-20T13:39:53;27.26;31.16
69359;HTU21D;56520;49.066;8.660;2023-07-20T13:42:19;26.91;33.35
69359;HTU21D;56520;49.066;8.660;2023-07-20T13:44:46;26.97;32.74
69359;HTU21D;56520;49.066;8.660;2023-07-20T13:47:11;27.35;32.67
69359;HTU21D;56520;49.066;8.660;2023-07-20T13:49:37;27.82;31.19
69359;HTU21D;56520;49.066;8.660;2023-07-20T13:52:02;28.04;30.87
69359;HTU21D;56520;49.066;8.660;2023-07-20T13:54:28;28.28;30.06
69359;HTU21D;56520;49.066;8.660;2023-07-20T13:56:53;28.32;30.54
69359;HTU21D;56520;49.066;8.660;2023-07-20T13:59:18;28.23;30.16
69359;HTU21D;56520;49.066;8.660;2023-07-20T14:01:44;28.26;29.96
69359;HTU21D;56520;49.066;8.660;2023-07-20T14:04:10;28.20;29.77
69359;HTU21D;56520;49.066;8.660;2023-07-20T14:06:35;27.97;30.22
69359;HTU21D;56520;49.066;8.660;2023-07-20T14:09:01;27.74;30.80
69359;HTU21D;56520;49.066;8.660;2023-07-20T14:11:27;27.70;29.71
69359;HTU21D;56520;49.066;8.660;2023-07-20T14:13:52;27.46;31.12
69359;HTU21D;56520;49.066;8.660;2023-07-20T14:16:19;27.35;32.46
69359;HTU21D;56520;49.066;8.660;2023-07-20T14:18:45;27.60;32.64
69359;HTU21D;56520;49.066;8.660;2023-07-20T14:21:12;27.84;29.82
69359;HTU21D;56520;49.066;8.660;2023-07-20T14:23:38;27.96;30.09
69359;HTU21D;56520;49.066;8.660;2023-07-20T14:26:03;28.06;30.52
69359;HTU21D;56520;49.066;8.660;2023-07-20T14:28:32;28.19;29.34
69359;HTU21D;56520;49.066;8.660;2023-07-20T14:30:58;28.26;30.82
69359;HTU21D;56520;49.066;8.660;2023-07-20T14:33:23;28.25;30.22
69359;HTU21D;56520;49.066;8.660;2023-07-20T14:35:49;28.30;29.50
69359;HTU21D;56520;49.066;8.660;2023-07-20T14:38:15;28.30;28.83
69359;HTU21D;56520;49.066;8.660;2023-07-20T14:40:40;28.27;29.47
69359;HTU21D;56520;49.066;8.660;2023-07-20T14:43:06;27.94;29.16
69359;HTU21D;56520;49.066;8.660;2023-07-20T14:45:32;27.55;30.37
69359;HTU21D;56520;49.066;8.660;2023-07-20T14:47:57;27.65;29.92
69359;HTU21D;56520;49.066;8.660;2023-07-20T14:50:23;27.76;29.68
69359;HTU21D;56520;49.066;8.660;2023-07-20T14:52:49;27.87;30.30
69359;HTU21D;56520;49.066;8.660;2023-07-20T14:55:15;28.05;30.75
69359;HTU21D;56520;49.066;8.660;2023-07-20T14:57:40;28.18;30.04
69359;HTU21D;56520;49.066;8.660;2023-07-20T15:00:06;28.21;29.59
69359;HTU21D;56520;49.066;8.660;2023-07-20T15:02:33;28.24;29.26
69359;HTU21D;56520;49.066;8.660;2023-07-20T15:04:59;28.05;28.93
69359;HTU21D;56520;49.066;8.660;2023-07-20T15:07:25;27.96;29.01
69359;HTU21D;56520;49.066;8.660;2023-07-20T15:09:50;28.12;28.97
69359;HTU21D;56520;49.066;8.660;2023-07-20T15:12:16;28.09;27.97
69359;HTU21D;56520;49.066;8.660;2023-07-20T15:14:42;28.08;27.83
69359;HTU21D;56520;49.066;8.660;2023-07-20T15:17:09;28.08;27.74
69359;HTU21D;56520;49.066;8.660;2023-07-20T15:19:34;27.99;29.06
69359;HTU21D;56520;49.066;8.660;2023-07-20T15:22:04;28.04;29.30